createdAt,value
2019-05-18T00:00:56.825Z,20.30
2019-05-18T00:04:02.497Z,20.30
2019-05-18T00:07:08.038Z,20.40
2019-05-18T00:10:13.682Z,20.30
2019-05-18T00:13:21.150Z,20.30
2019-05-18T00:16:26.710Z,20.30
2019-05-18T00:19:32.360Z,20.30
2019-05-18T00:22:38.037Z,20.30
2019-05-18T00:25:43.662Z,20.30
2019-05-18T00:28:49.375Z,20.30
2019-05-18T00:31:55.065Z,20.30
2019-05-18T00:35:00.685Z,20.30
2019-05-18T00:38:06.385Z,20.30
2019-05-18T00:41:12.977Z,20.30
2019-05-18T00:44:19.225Z,20.30
2019-05-18T00:47:40.068Z,20.20
2019-05-18T00:50:32.092Z,20.20
2019-05-18T00:53:37.766Z,20.20
2019-05-18T00:56:43.425Z,20.20
2019-05-18T00:59:49.049Z,20.20
2019-05-18T01:02:54.693Z,20.20
2019-05-18T01:06:00.250Z,20.20
2019-05-18T01:09:07.365Z,20.20
2019-05-18T01:12:13.195Z,20.20
2019-05-18T01:15:19.555Z,20.20
2019-05-18T01:18:25.242Z,20.20
2019-05-18T01:21:31.909Z,20.20
2019-05-18T01:24:39.253Z,20.20
2019-05-18T01:27:44.938Z,20.20
2019-05-18T01:30:50.642Z,20.20
2019-05-18T01:33:56.269Z,20.20
2019-05-18T01:37:01.857Z,20.10
2019-05-18T01:40:09.336Z,20.20
2019-05-18T01:43:14.938Z,20.20
2019-05-18T01:46:20.566Z,20.10
2019-05-18T01:49:26.260Z,20.20
2019-05-18T01:52:31.799Z,20.20
2019-05-18T01:55:37.515Z,20.10
2019-05-18T01:58:44.153Z,20.20
2019-05-18T02:01:49.885Z,20.10
2019-05-18T02:04:55.537Z,20.10
2019-05-18T02:08:01.153Z,20.10
2019-05-18T02:11:06.746Z,20.10
2019-05-18T02:14:13.302Z,20.10
2019-05-18T02:17:19.042Z,20.10
2019-05-18T02:20:24.722Z,20.10
2019-05-18T02:23:30.373Z,20.10
2019-05-18T02:26:36.006Z,20.10
2019-05-18T02:29:41.521Z,20.10
2019-05-18T02:32:47.128Z,20.10
2019-05-18T02:35:52.778Z,20.10
2019-05-18T02:38:58.428Z,20.10
2019-05-18T02:42:04.171Z,20.10
2019-05-18T02:45:10.129Z,20.10
2019-05-18T02:48:15.901Z,20.10
2019-05-18T02:51:21.676Z,20.10
2019-05-18T02:54:27.447Z,20.10
2019-05-18T02:57:33.067Z,20.00
2019-05-18T03:00:38.686Z,20.10
2019-05-18T03:03:44.370Z,20.00
2019-05-18T03:06:50.030Z,20.00
2019-05-18T03:09:55.691Z,20.10
2019-05-18T03:13:01.299Z,20.00
2019-05-18T03:16:08.931Z,20.00
2019-05-18T03:19:14.586Z,20.00
2019-05-18T03:22:21.359Z,20.00
2019-05-18T03:25:27.022Z,20.00
2019-05-18T03:28:32.668Z,20.00
2019-05-18T03:31:38.329Z,20.00
2019-05-18T03:34:44.076Z,20.00
2019-05-18T03:37:49.737Z,20.00
2019-05-18T03:40:55.338Z,20.00
2019-05-18T03:44:00.958Z,20.00
2019-05-18T03:47:06.566Z,20.00
2019-05-18T03:50:12.395Z,20.00
2019-05-18T03:53:19.138Z,19.90
2019-05-18T03:56:24.915Z,20.00
2019-05-18T03:59:30.639Z,20.00
2019-05-18T04:02:36.289Z,20.00
2019-05-18T04:05:41.980Z,20.00
2019-05-18T04:08:47.583Z,20.00
2019-05-18T04:11:53.258Z,20.00
2019-05-18T04:14:58.944Z,19.90
2019-05-18T04:18:04.569Z,19.90
2019-05-18T04:21:10.280Z,20.00
2019-05-18T04:24:15.911Z,19.90
2019-05-18T04:27:21.520Z,19.90
2019-05-18T04:30:27.167Z,19.90
2019-05-18T04:33:32.794Z,19.90
2019-05-18T04:36:38.370Z,19.90
2019-05-18T04:39:44.062Z,19.90
2019-05-18T04:42:49.678Z,19.90
2019-05-18T04:45:55.353Z,19.90
2019-05-18T04:49:00.950Z,19.90
2019-05-18T04:52:06.431Z,19.90
2019-05-18T04:55:12.213Z,19.90
2019-05-18T04:58:17.692Z,19.90
2019-05-18T05:01:23.314Z,20.00
2019-05-18T05:04:28.833Z,20.00
2019-05-18T05:07:34.458Z,20.00
2019-05-18T05:10:40.062Z,20.10
2019-05-18T05:13:45.710Z,20.10
2019-05-18T05:16:51.494Z,20.10
2019-05-18T05:19:57.202Z,20.10
2019-05-18T05:23:02.732Z,20.20
2019-05-18T05:26:08.429Z,20.20
2019-05-18T05:29:14.174Z,20.20
2019-05-18T05:32:19.827Z,20.30
2019-05-18T05:35:25.506Z,20.40
2019-05-18T05:38:31.224Z,20.40
2019-05-18T05:41:36.772Z,20.50
2019-05-18T05:44:42.323Z,20.40
2019-05-18T05:47:48.118Z,20.40
2019-05-18T05:50:54.890Z,20.40
2019-05-18T05:54:00.509Z,20.40
2019-05-18T05:57:06.153Z,20.40
2019-05-18T06:00:12.335Z,20.40
2019-05-18T06:03:17.984Z,20.40
2019-05-18T06:06:24.659Z,20.40
2019-05-18T06:09:30.322Z,20.30
2019-05-18T06:12:36.080Z,20.40
2019-05-18T06:15:41.718Z,20.40
2019-05-18T06:18:48.378Z,20.40
2019-05-18T06:21:54.013Z,20.40
2019-05-18T06:24:59.598Z,20.50
2019-05-18T06:28:06.378Z,20.50
2019-05-18T06:31:12.038Z,20.50
2019-05-18T06:34:17.732Z,20.50
2019-05-18T06:37:23.306Z,20.50
2019-05-18T06:40:28.885Z,20.60
2019-05-18T06:43:34.558Z,20.60
2019-05-18T06:46:40.021Z,20.60
2019-05-18T06:49:45.637Z,20.60
2019-05-18T06:52:51.290Z,20.60
2019-05-18T06:55:57.295Z,20.60
2019-05-18T06:59:03.195Z,20.70
2019-05-18T07:02:08.867Z,20.70
2019-05-18T07:05:14.614Z,20.70
2019-05-18T07:08:20.278Z,20.70
2019-05-18T07:11:25.926Z,20.70
2019-05-18T07:14:31.549Z,20.70
2019-05-18T07:17:37.239Z,20.80
2019-05-18T07:20:42.987Z,20.80
2019-05-18T07:23:48.638Z,20.80
2019-05-18T07:26:55.117Z,20.80
2019-05-18T07:30:00.767Z,20.90
2019-05-18T07:33:06.496Z,20.80
2019-05-18T07:36:12.234Z,20.80
2019-05-18T07:39:17.930Z,20.80
2019-05-18T07:42:23.610Z,20.90
2019-05-18T07:45:29.093Z,20.90
2019-05-18T07:48:36.522Z,20.90
2019-05-18T07:51:42.193Z,20.90
2019-05-18T07:54:47.926Z,20.90
2019-05-18T07:57:53.612Z,20.90
2019-05-18T08:00:59.264Z,20.90
2019-05-18T08:04:05.027Z,21.00
2019-05-18T08:07:10.645Z,20.90
2019-05-18T08:10:19.183Z,21.00
2019-05-18T08:13:24.834Z,20.90
2019-05-18T08:16:30.446Z,20.90
2019-05-18T08:19:36.165Z,20.90
2019-05-18T08:22:41.770Z,21.00
2019-05-18T08:25:47.417Z,21.00
2019-05-18T08:28:54.829Z,21.00
2019-05-18T08:32:00.570Z,21.00
2019-05-18T08:35:06.637Z,21.00
2019-05-18T08:38:12.287Z,21.00
2019-05-18T08:41:18.151Z,21.00
2019-05-18T08:44:24.762Z,21.00
2019-05-18T08:47:31.404Z,21.00
2019-05-18T08:50:37.027Z,21.00
2019-05-18T08:53:42.738Z,21.00
2019-05-18T08:56:48.391Z,21.00
2019-05-18T08:59:56.035Z,21.00
2019-05-18T09:03:01.930Z,21.00
2019-05-18T09:06:07.673Z,21.00
2019-05-18T09:09:13.321Z,21.00
2019-05-18T09:12:18.959Z,21.00
2019-05-18T09:15:24.676Z,21.00
2019-05-18T09:18:30.381Z,21.00
2019-05-18T09:21:36.038Z,21.00
2019-05-18T09:24:41.691Z,21.00
2019-05-18T09:27:47.317Z,21.00
2019-05-18T09:30:53.079Z,21.00
2019-05-18T09:33:58.654Z,21.00
2019-05-18T09:37:04.307Z,21.00
2019-05-18T09:40:10.566Z,21.00
2019-05-18T09:43:16.285Z,21.10
2019-05-18T09:46:22.095Z,21.00
2019-05-18T09:49:27.800Z,21.00
2019-05-18T09:52:44.621Z,21.10
2019-05-18T09:55:40.695Z,21.00
2019-05-18T09:58:46.322Z,21.10
2019-05-18T10:01:51.993Z,21.10
2019-05-18T10:04:57.626Z,21.10
2019-05-18T10:08:04.266Z,21.10
2019-05-18T10:11:09.813Z,21.10
2019-05-18T10:14:16.539Z,21.10
2019-05-18T10:17:22.194Z,21.10
2019-05-18T10:20:27.935Z,21.00
2019-05-18T10:23:33.598Z,21.10
2019-05-18T10:26:39.238Z,21.00
2019-05-18T10:29:46.746Z,21.00
2019-05-18T10:32:53.185Z,21.00
2019-05-18T10:35:58.930Z,21.00
2019-05-18T10:39:06.549Z,21.00
2019-05-18T10:42:12.186Z,21.00
2019-05-18T10:45:17.942Z,21.00
2019-05-18T10:48:24.722Z,21.00
2019-05-18T10:51:30.294Z,21.00
2019-05-18T10:54:38.173Z,21.00
2019-05-18T10:57:43.861Z,21.00
2019-05-18T11:00:49.502Z,21.00
2019-05-18T11:03:55.162Z,21.00
2019-05-18T11:07:00.842Z,21.00
2019-05-18T11:10:07.350Z,21.00
2019-05-18T11:13:12.995Z,21.00
2019-05-18T11:16:18.597Z,21.00
2019-05-18T11:19:25.981Z,21.00
2019-05-18T11:22:31.642Z,21.00
2019-05-18T11:25:37.294Z,21.00
2019-05-18T11:28:42.834Z,20.90
2019-05-18T11:31:48.605Z,20.90
2019-05-18T11:34:54.285Z,20.90
2019-05-18T11:37:59.865Z,20.90
2019-05-18T11:41:05.449Z,20.90
2019-05-18T11:44:11.107Z,20.90
2019-05-18T11:47:16.754Z,20.90
2019-05-18T11:50:22.749Z,20.90
2019-05-18T11:53:28.363Z,20.90
2019-05-18T11:56:34.130Z,20.90
2019-05-18T11:59:40.897Z,20.90
2019-05-18T12:02:46.580Z,20.90
2019-05-18T12:05:52.338Z,20.90
2019-05-18T12:08:58.709Z,20.90
2019-05-18T12:12:04.442Z,20.90
2019-05-18T12:15:10.874Z,20.90
2019-05-18T12:18:18.140Z,20.90
2019-05-18T12:21:23.774Z,20.90
2019-05-18T12:24:29.647Z,20.90
2019-05-18T12:27:35.291Z,20.90
2019-05-18T12:30:41.909Z,20.90
2019-05-18T12:33:47.561Z,20.90
2019-05-18T12:36:53.381Z,20.90
2019-05-18T12:39:59.015Z,20.80
2019-05-18T12:43:04.682Z,20.80
2019-05-18T12:46:10.271Z,20.90
2019-05-18T12:49:15.929Z,20.80
2019-05-18T12:52:21.644Z,20.80
2019-05-18T12:55:27.162Z,20.80
2019-05-18T12:58:32.806Z,20.80
2019-05-18T13:01:38.466Z,20.80
2019-05-18T13:04:44.130Z,20.80
2019-05-18T13:07:49.803Z,20.80
2019-05-18T13:10:56.550Z,20.80
2019-05-18T13:14:02.266Z,20.80
2019-05-18T13:17:07.887Z,20.80
2019-05-18T13:20:15.010Z,20.80
2019-05-18T13:23:20.591Z,20.80
2019-05-18T13:26:26.219Z,20.80
2019-05-18T13:29:32.038Z,20.80
2019-05-18T13:32:37.699Z,20.80
2019-05-18T13:35:45.558Z,20.80
2019-05-18T13:38:50.567Z,20.80
2019-05-18T13:41:56.150Z,20.80
2019-05-18T13:45:01.810Z,20.80
2019-05-18T13:48:08.372Z,20.80
2019-05-18T13:51:14.022Z,20.80
2019-05-18T13:54:19.683Z,20.80
2019-05-18T13:57:25.202Z,20.70
2019-05-18T14:00:30.851Z,20.80
2019-05-18T14:03:36.530Z,20.80
2019-05-18T14:06:42.297Z,20.80
2019-05-18T14:09:47.919Z,20.70
2019-05-18T14:12:53.901Z,20.70
2019-05-18T14:15:59.525Z,20.70
2019-05-18T14:19:05.113Z,20.70
2019-05-18T14:22:10.763Z,20.70
2019-05-18T14:25:19.646Z,20.70
2019-05-18T14:28:23.942Z,20.70
2019-05-18T14:31:29.534Z,20.70
2019-05-18T14:34:35.126Z,20.70
2019-05-18T14:37:40.658Z,20.70
2019-05-18T14:40:46.318Z,20.70
2019-05-18T14:43:52.103Z,20.70
2019-05-18T14:46:57.726Z,20.70
2019-05-18T14:50:03.369Z,20.70
2019-05-18T14:53:09.031Z,20.70
2019-05-18T14:56:17.038Z,20.70
2019-05-18T14:59:22.693Z,20.70
2019-05-18T15:02:29.251Z,20.70
2019-05-18T15:05:34.826Z,20.70
2019-05-18T15:08:40.338Z,20.70
2019-05-18T15:11:46.014Z,20.70
2019-05-18T15:14:51.799Z,20.70
2019-05-18T15:17:58.553Z,20.70
2019-05-18T15:21:04.179Z,20.70
2019-05-18T15:24:09.974Z,20.70
2019-05-18T15:27:15.583Z,20.70
2019-05-18T15:30:21.582Z,20.70
2019-05-18T15:33:27.370Z,20.70
2019-05-18T15:36:32.981Z,20.70
2019-05-18T15:39:38.666Z,20.70
2019-05-18T15:42:44.261Z,20.70
2019-05-18T15:45:49.838Z,20.70
2019-05-18T15:48:55.560Z,20.70
2019-05-18T15:52:01.205Z,20.70
2019-05-18T15:55:07.267Z,20.70
2019-05-18T15:58:12.822Z,20.70
2019-05-18T16:01:20.318Z,20.70
2019-05-18T16:04:26.065Z,20.60
2019-05-18T16:07:31.822Z,20.60
2019-05-18T16:10:37.360Z,20.70
2019-05-18T16:13:43.959Z,20.60
2019-05-18T16:16:54.424Z,20.60
2019-05-18T16:19:57.824Z,20.60
2019-05-18T16:23:03.579Z,20.60
2019-05-18T16:26:21.120Z,20.60
2019-05-18T16:29:16.558Z,20.70
2019-05-18T16:32:22.126Z,20.70
2019-05-18T16:35:27.890Z,20.70
2019-05-18T16:38:33.507Z,20.60
2019-05-18T16:41:39.191Z,20.70
2019-05-18T16:44:44.946Z,20.60
2019-05-18T16:47:50.571Z,20.60
2019-05-18T16:50:57.244Z,20.60
2019-05-18T16:54:04.778Z,20.60
2019-05-18T16:57:10.393Z,20.60
2019-05-18T17:00:17.550Z,20.60
2019-05-18T17:03:23.229Z,20.60
2019-05-18T17:06:28.785Z,20.60
2019-05-18T17:09:35.417Z,20.60
2019-05-18T17:12:41.251Z,20.60
2019-05-18T17:15:46.999Z,20.60
2019-05-18T17:18:52.525Z,20.60
2019-05-18T17:21:58.202Z,20.60
2019-05-18T17:25:05.380Z,20.60
2019-05-18T17:28:11.261Z,20.60
2019-05-18T17:31:17.057Z,20.60
2019-05-18T17:34:22.777Z,20.60
2019-05-18T17:37:29.786Z,20.60
2019-05-18T17:40:35.453Z,20.60
2019-05-18T17:43:41.150Z,20.60
2019-05-18T17:46:46.758Z,20.60
2019-05-18T17:49:52.619Z,20.60
2019-05-18T17:53:00.200Z,20.60
2019-05-18T17:56:05.887Z,20.60
2019-05-18T17:59:11.507Z,20.60
2019-05-18T18:02:17.078Z,20.60
2019-05-18T18:05:22.722Z,20.60
2019-05-18T18:08:28.507Z,20.60
2019-05-18T18:11:34.133Z,20.60
2019-05-18T18:14:41.638Z,20.60
2019-05-18T18:17:48.602Z,20.60
2019-05-18T18:20:54.311Z,20.60
2019-05-18T18:24:00.854Z,20.60
2019-05-18T18:27:07.419Z,20.60
2019-05-18T18:30:13.680Z,20.50
2019-05-18T18:33:20.234Z,20.60
2019-05-18T18:36:25.930Z,20.60
2019-05-18T18:39:31.492Z,20.60
2019-05-18T18:42:37.598Z,20.60
2019-05-18T18:45:43.494Z,20.50
2019-05-18T18:48:49.130Z,20.60
2019-05-18T18:51:54.871Z,20.60
2019-05-18T18:55:00.458Z,20.60
2019-05-18T18:58:06.230Z,20.60
2019-05-18T19:01:11.766Z,20.60
2019-05-18T19:04:17.381Z,20.60
2019-05-18T19:07:23.031Z,20.60
2019-05-18T19:10:28.613Z,20.60
2019-05-18T19:13:34.299Z,20.60
2019-05-18T19:16:39.897Z,20.70
2019-05-18T19:19:45.575Z,20.70
2019-05-18T19:22:51.372Z,20.70
2019-05-18T19:25:57.078Z,20.70
2019-05-18T19:29:02.750Z,20.70
2019-05-18T19:32:08.390Z,20.60
2019-05-18T19:35:15.448Z,20.70
2019-05-18T19:38:21.141Z,20.70
2019-05-18T19:41:26.846Z,20.70
2019-05-18T19:44:32.578Z,20.70
2019-05-18T19:47:38.269Z,20.70
2019-05-18T19:50:43.957Z,20.70
2019-05-18T19:53:51.754Z,20.70
2019-05-18T19:56:57.466Z,20.70
2019-05-18T20:00:04.103Z,20.70
2019-05-18T20:03:10.010Z,20.70
2019-05-18T20:06:15.610Z,20.70
2019-05-18T20:09:22.382Z,20.70
2019-05-18T20:12:28.022Z,20.70
2019-05-18T20:15:33.711Z,20.70
2019-05-18T20:18:39.373Z,20.70
2019-05-18T20:21:44.956Z,20.70
2019-05-18T20:29:25.318Z,20.70
2019-05-18T20:32:30.759Z,20.70
2019-05-18T20:35:36.411Z,20.60
2019-05-18T20:38:42.142Z,20.60
2019-05-18T20:41:48.015Z,20.60
2019-05-18T20:44:53.642Z,20.60
2019-05-18T20:47:59.291Z,20.60
2019-05-18T20:51:04.947Z,20.60
2019-05-18T20:54:10.674Z,20.60
2019-05-18T20:57:16.345Z,20.60
2019-05-18T21:00:21.901Z,20.60
2019-05-18T21:03:27.549Z,20.60
2019-05-18T21:06:34.098Z,20.60
2019-05-18T21:09:39.795Z,20.60
2019-05-18T21:12:45.436Z,20.60
2019-05-18T21:15:51.049Z,20.60
2019-05-18T21:18:56.766Z,20.60
2019-05-18T21:22:04.433Z,20.60
2019-05-18T21:25:11.939Z,20.60
2019-05-18T21:28:17.595Z,20.60
2019-05-18T21:31:23.209Z,20.60
2019-05-18T21:34:28.914Z,20.60
2019-05-18T21:37:34.542Z,20.60
2019-05-18T21:40:40.213Z,20.60
2019-05-18T21:43:45.702Z,20.60
2019-05-18T21:46:51.398Z,20.50
2019-05-18T21:49:58.081Z,20.50
2019-05-18T21:53:03.717Z,20.60
2019-05-18T21:56:09.303Z,20.50
2019-05-18T21:59:15.046Z,20.50
2019-05-18T22:02:20.742Z,20.50
2019-05-18T22:05:26.733Z,20.50
2019-05-18T22:08:32.418Z,20.50
2019-05-18T22:11:38.049Z,20.50
2019-05-18T22:14:43.749Z,20.50
2019-05-18T22:18:04.550Z,20.50
2019-05-18T22:21:10.317Z,20.50
2019-05-18T22:24:16.042Z,20.50
2019-05-18T22:27:21.711Z,20.50
2019-05-18T22:30:27.392Z,20.40
2019-05-18T22:33:32.942Z,20.40
2019-05-18T22:36:38.639Z,20.50
2019-05-18T22:39:44.395Z,20.50
2019-05-18T22:42:50.085Z,20.40
2019-05-18T22:45:55.743Z,20.40
2019-05-18T22:49:01.350Z,20.40
2019-05-18T22:52:07.055Z,20.50
2019-05-18T22:55:13.867Z,20.50
2019-05-18T22:58:19.507Z,20.50
2019-05-18T23:01:25.172Z,20.50
2019-05-18T23:04:30.777Z,20.50
2019-05-18T23:07:36.515Z,20.50
2019-05-18T23:10:42.266Z,20.40
2019-05-18T23:13:47.949Z,20.40
2019-05-18T23:16:53.645Z,20.40
2019-05-18T23:19:59.229Z,20.40
2019-05-18T23:23:04.925Z,20.50
2019-05-18T23:26:11.625Z,20.40
2019-05-18T23:29:17.742Z,20.40
2019-05-18T23:32:23.378Z,20.40
2019-05-18T23:35:29.003Z,20.40
2019-05-18T23:38:34.615Z,20.50
2019-05-18T23:41:41.466Z,20.40
2019-05-18T23:44:49.878Z,20.50
2019-05-18T23:47:55.570Z,20.40
2019-05-18T23:55:32.656Z,20.40
2019-05-18T23:58:38.273Z,20.40
